createdAt,value
2022-11-26T00:01:25.793Z,63.10
2022-11-26T00:03:52.267Z,63.10
2022-11-26T00:06:18.728Z,63.40
2022-11-26T00:08:45.256Z,63.20
2022-11-26T00:11:11.715Z,63.20
2022-11-26T00:13:38.166Z,63.40
2022-11-26T00:16:04.735Z,63.20
2022-11-26T00:18:31.212Z,63.30
2022-11-26T00:20:57.691Z,63.50
2022-11-26T00:23:24.155Z,63.40
2022-11-26T00:25:50.661Z,63.20
2022-11-26T00:28:17.169Z,62.90
2022-11-26T00:30:43.828Z,63.20
2022-11-26T00:33:10.279Z,63.20
2022-11-26T00:35:36.765Z,63.10
2022-11-26T00:38:03.209Z,63.50
2022-11-26T00:40:29.686Z,63.30
2022-11-26T00:43:01.281Z,63.00
2022-11-26T00:45:28.334Z,63.20
2022-11-26T00:47:54.815Z,63.40
2022-11-26T00:50:21.296Z,63.40
2022-11-26T00:52:47.768Z,63.40
2022-11-26T00:55:14.237Z,63.30
2022-11-26T00:57:40.698Z,63.40
2022-11-26T01:00:07.180Z,63.30
2022-11-26T01:02:33.686Z,63.00
2022-11-26T01:05:00.159Z,62.70
2022-11-26T01:07:26.696Z,63.00
2022-11-26T01:10:03.488Z,62.90
2022-11-26T01:12:30.495Z,63.00
2022-11-26T01:14:56.950Z,63.00
2022-11-26T01:17:23.444Z,63.10
2022-11-26T01:19:49.912Z,63.00
2022-11-26T01:22:16.370Z,62.80
2022-11-26T01:24:42.837Z,63.00
2022-11-26T01:27:11.739Z,63.00
2022-11-26T01:29:38.207Z,63.00
2022-11-26T01:32:04.704Z,62.90
2022-11-26T01:34:31.179Z,62.90
2022-11-26T01:36:57.735Z,62.90
2022-11-26T01:39:24.200Z,63.10
2022-11-26T01:41:50.682Z,63.00
2022-11-26T01:44:17.144Z,62.90
2022-11-26T01:46:43.629Z,62.80
2022-11-26T01:49:10.094Z,63.10
2022-11-26T01:51:39.321Z,63.40
2022-11-26T01:54:05.979Z,63.40
2022-11-26T01:56:32.490Z,63.00
2022-11-26T01:58:58.967Z,62.70
2022-11-26T02:01:25.497Z,63.00
2022-11-26T02:03:52.065Z,63.00
2022-11-26T02:06:21.373Z,63.00
2022-11-26T02:08:47.836Z,63.00
2022-11-26T02:11:14.312Z,63.10
2022-11-26T02:13:40.791Z,63.00
2022-11-26T02:16:07.315Z,63.20
2022-11-26T02:18:33.773Z,63.00
2022-11-26T02:21:00.234Z,63.00
2022-11-26T02:23:26.709Z,62.90
2022-11-26T02:25:53.190Z,62.90
2022-11-26T02:28:19.679Z,62.90
2022-11-26T02:30:47.317Z,62.70
2022-11-26T02:33:13.789Z,62.90
2022-11-26T02:35:40.254Z,62.80
2022-11-26T02:38:06.740Z,62.80
2022-11-26T02:40:33.226Z,62.80
2022-11-26T02:42:59.711Z,62.70
2022-11-26T02:45:26.208Z,62.90
2022-11-26T02:50:33.060Z,62.40
2022-11-26T02:52:59.626Z,62.30
2022-11-26T02:55:26.082Z,62.60
2022-11-26T02:57:52.564Z,62.70
2022-11-26T03:00:19.013Z,62.50
2022-11-26T03:02:45.501Z,62.10
2022-11-26T03:05:11.986Z,61.60
2022-11-26T03:07:38.502Z,61.30
2022-11-26T03:10:05.042Z,61.50
2022-11-26T03:12:31.576Z,61.20
2022-11-26T03:14:58.028Z,61.30
2022-11-26T03:17:24.482Z,61.30
2022-11-26T03:19:51.195Z,61.30
2022-11-26T03:22:17.674Z,61.50
2022-11-26T03:24:44.171Z,61.50
2022-11-26T03:27:10.639Z,61.60
2022-11-26T03:29:37.097Z,61.60
2022-11-26T03:32:03.649Z,61.10
2022-11-26T03:34:30.138Z,61.20
2022-11-26T03:36:56.594Z,61.30
2022-11-26T03:39:23.050Z,61.60
2022-11-26T03:41:49.516Z,61.40
2022-11-26T03:44:15.982Z,61.10
2022-11-26T03:46:42.629Z,60.90
2022-11-26T03:49:09.073Z,60.80
2022-11-26T03:51:35.550Z,60.40
2022-11-26T03:54:02.015Z,60.70
2022-11-26T03:56:28.471Z,61.00
2022-11-26T03:58:54.939Z,61.40
2022-11-26T04:01:21.430Z,61.50
2022-11-26T04:03:47.923Z,61.10
2022-11-26T04:06:14.404Z,61.00
2022-11-26T04:08:40.901Z,60.90
2022-11-26T04:11:07.377Z,61.10
2022-11-26T04:13:33.826Z,61.30
2022-11-26T04:16:00.303Z,61.20
2022-11-26T04:18:26.776Z,61.60
2022-11-26T04:20:53.679Z,61.80
2022-11-26T04:23:20.221Z,61.80
2022-11-26T04:25:46.693Z,61.90
2022-11-26T04:28:13.141Z,62.20
2022-11-26T04:30:39.631Z,62.00
2022-11-26T04:33:06.201Z,61.80
2022-11-26T04:35:32.651Z,61.90
2022-11-26T04:37:59.099Z,62.00
2022-11-26T04:40:25.557Z,61.80
2022-11-26T04:42:52.018Z,61.60
2022-11-26T04:45:18.503Z,61.60
2022-11-26T04:47:44.986Z,61.60
2022-11-26T04:50:11.439Z,61.70
2022-11-26T04:52:37.887Z,61.70
2022-11-26T04:55:04.352Z,61.70
2022-11-26T04:57:30.834Z,61.20
2022-11-26T04:59:59.463Z,61.40
2022-11-26T05:02:25.948Z,61.40
2022-11-26T05:04:52.426Z,61.80
2022-11-26T05:07:18.945Z,61.70
2022-11-26T05:09:45.457Z,61.60
2022-11-26T05:12:11.930Z,61.70
2022-11-26T05:14:38.640Z,61.60
2022-11-26T05:17:05.247Z,61.80
2022-11-26T05:19:31.711Z,61.80
2022-11-26T05:21:58.199Z,62.00
2022-11-26T05:24:24.668Z,61.80
2022-11-26T05:26:56.411Z,61.80
2022-11-26T05:29:23.500Z,61.30
2022-11-26T05:34:30.304Z,61.30
2022-11-26T05:36:56.874Z,61.40
2022-11-26T05:39:23.343Z,61.50
2022-11-26T05:41:49.832Z,61.30
2022-11-26T05:44:16.295Z,61.50
2022-11-26T05:46:42.796Z,61.60
2022-11-26T05:49:09.261Z,61.40
2022-11-26T05:51:35.762Z,61.40
2022-11-26T05:54:02.216Z,61.00
2022-11-26T05:56:28.732Z,60.60
2022-11-26T05:58:55.198Z,61.00
2022-11-26T06:01:21.666Z,60.90
2022-11-26T06:03:48.242Z,60.50
2022-11-26T06:06:14.796Z,60.50
2022-11-26T06:08:41.325Z,60.60
2022-11-26T06:11:07.816Z,61.00
2022-11-26T06:13:34.266Z,61.10
2022-11-26T06:16:00.723Z,61.00
2022-11-26T06:18:27.169Z,60.60
2022-11-26T06:21:00.146Z,60.90
2022-11-26T06:23:26.589Z,60.90
2022-11-26T06:25:53.056Z,60.50
2022-11-26T06:28:19.550Z,60.90
2022-11-26T06:30:46.008Z,60.60
2022-11-26T06:33:12.530Z,60.40
2022-11-26T06:35:39.006Z,60.50
2022-11-26T06:38:05.526Z,60.20
2022-11-26T06:40:32.053Z,59.90
2022-11-26T06:42:58.523Z,60.00
2022-11-26T06:45:25.084Z,60.00
2022-11-26T06:47:51.574Z,59.70
2022-11-26T06:50:18.054Z,59.40
2022-11-26T06:52:44.537Z,59.40
2022-11-26T06:55:11.013Z,59.50
2022-11-26T06:57:37.488Z,59.60
2022-11-26T07:00:03.927Z,59.50
2022-11-26T07:05:20.838Z,59.60
2022-11-26T07:07:47.444Z,59.40
2022-11-26T07:10:13.967Z,59.70
2022-11-26T07:12:40.419Z,59.40
2022-11-26T07:15:06.867Z,59.40
2022-11-26T07:17:33.343Z,59.50
2022-11-26T07:19:59.806Z,59.50
2022-11-26T07:22:26.263Z,59.20
2022-11-26T07:24:52.711Z,59.30
2022-11-26T07:27:19.172Z,59.00
2022-11-26T07:29:48.495Z,59.20
2022-11-26T07:32:14.965Z,59.20
2022-11-26T07:34:41.593Z,59.10
2022-11-26T07:37:08.158Z,59.20
2022-11-26T07:39:34.720Z,59.10
2022-11-26T07:42:01.167Z,59.20
2022-11-26T07:44:27.638Z,59.10
2022-11-26T07:46:54.104Z,59.20
2022-11-26T07:49:20.584Z,59.30
2022-11-26T07:51:47.127Z,59.10
2022-11-26T07:54:13.591Z,59.20
2022-11-26T07:56:40.074Z,59.40
2022-11-26T07:59:06.559Z,59.40
2022-11-26T08:01:33.110Z,59.70
2022-11-26T08:03:59.648Z,59.40
2022-11-26T08:06:26.108Z,59.90
2022-11-26T08:08:52.578Z,60.30
2022-11-26T08:11:19.048Z,60.10
2022-11-26T08:13:45.503Z,60.30
2022-11-26T08:16:12.086Z,60.10
2022-11-26T08:18:38.601Z,60.60
2022-11-26T08:21:05.051Z,60.90
2022-11-26T08:23:31.504Z,60.60
2022-11-26T08:28:44.403Z,60.40
2022-11-26T08:31:11.718Z,60.10
2022-11-26T08:33:38.248Z,60.00
2022-11-26T08:36:07.472Z,60.70
2022-11-26T08:38:34.293Z,60.20
2022-11-26T08:41:00.769Z,59.80
2022-11-26T08:43:45.058Z,59.60
2022-11-26T08:46:13.744Z,59.90
2022-11-26T08:48:40.292Z,59.80
2022-11-26T08:51:06.786Z,59.80
2022-11-26T08:53:33.245Z,60.30
2022-11-26T08:56:00.664Z,60.40
2022-11-26T08:58:27.213Z,60.10
2022-11-26T09:00:53.738Z,60.50
2022-11-26T09:03:20.317Z,60.50
2022-11-26T09:05:46.871Z,60.70
2022-11-26T09:08:13.336Z,61.10
2022-11-26T09:10:39.808Z,61.30
2022-11-26T09:13:06.271Z,61.00
2022-11-26T09:15:32.752Z,61.00
2022-11-26T09:17:59.251Z,60.80
2022-11-26T09:20:27.608Z,61.20
2022-11-26T09:22:54.061Z,61.80
2022-11-26T09:25:20.537Z,61.70
2022-11-26T09:27:47.188Z,61.50
2022-11-26T09:30:13.643Z,61.50
2022-11-26T09:32:40.145Z,61.80
2022-11-26T09:35:06.677Z,62.00
2022-11-26T09:37:35.324Z,62.40
2022-11-26T09:40:01.779Z,62.50
2022-11-26T09:42:28.259Z,62.30
2022-11-26T09:44:54.737Z,62.30
2022-11-26T09:47:21.275Z,62.00
2022-11-26T09:49:47.716Z,61.90
2022-11-26T09:52:14.184Z,62.00
2022-11-26T09:54:40.825Z,62.10
2022-11-26T09:57:07.400Z,62.40
2022-11-26T09:59:33.859Z,61.90
2022-11-26T10:02:00.420Z,61.10
2022-11-26T10:04:26.934Z,61.40
2022-11-26T10:06:53.424Z,61.80
2022-11-26T10:09:19.889Z,61.80
2022-11-26T10:11:46.375Z,62.20
2022-11-26T10:14:15.622Z,61.80
2022-11-26T10:16:42.192Z,62.00
2022-11-26T10:19:08.677Z,61.70
2022-11-26T10:21:57.746Z,61.90
2022-11-26T10:24:21.564Z,62.20
2022-11-26T10:26:48.742Z,62.00
2022-11-26T10:29:15.187Z,61.30
2022-11-26T10:31:41.712Z,61.50
2022-11-26T10:34:08.192Z,61.40
2022-11-26T10:36:34.687Z,61.90
2022-11-26T10:39:01.184Z,61.60
2022-11-26T10:41:27.663Z,62.10
2022-11-26T10:43:54.158Z,62.20
2022-11-26T10:46:20.678Z,62.00
2022-11-26T10:48:47.210Z,61.90
2022-11-26T10:51:13.709Z,62.00
2022-11-26T10:53:40.192Z,62.30
2022-11-26T10:56:06.655Z,62.70
2022-11-26T10:58:33.140Z,62.20
2022-11-26T11:00:59.712Z,62.00
2022-11-26T11:03:51.788Z,61.80
2022-11-26T11:06:12.763Z,61.20
2022-11-26T11:08:39.284Z,61.90
2022-11-26T11:11:05.788Z,61.40
2022-11-26T11:13:32.281Z,60.90
2022-11-26T11:15:59.239Z,60.90
2022-11-26T11:18:25.746Z,61.50
2022-11-26T11:20:52.206Z,61.70
2022-11-26T11:23:18.679Z,62.00
2022-11-26T11:25:45.147Z,61.90
2022-11-26T11:28:12.574Z,61.70
2022-11-26T11:30:39.196Z,61.50
2022-11-26T11:33:05.685Z,61.30
2022-11-26T11:35:32.208Z,61.90
2022-11-26T11:37:58.715Z,61.80
2022-11-26T11:40:25.189Z,62.30
2022-11-26T11:42:51.673Z,61.90
2022-11-26T11:45:18.156Z,62.00
2022-11-26T11:47:45.070Z,62.00
2022-11-26T11:50:11.534Z,62.00
2022-11-26T11:52:38.014Z,61.90
2022-11-26T11:55:04.511Z,62.00
2022-11-26T11:57:30.977Z,62.20
2022-11-26T11:59:57.501Z,62.20
2022-11-26T12:02:23.985Z,62.10
2022-11-26T12:04:58.354Z,61.90
2022-11-26T12:07:24.924Z,62.10
2022-11-26T12:09:51.441Z,62.20
2022-11-26T12:12:17.902Z,62.00
2022-11-26T12:14:44.599Z,61.90
2022-11-26T12:17:11.345Z,61.60
2022-11-26T12:19:37.825Z,61.50
2022-11-26T12:22:04.294Z,62.10
2022-11-26T12:24:30.770Z,61.90
2022-11-26T12:26:57.230Z,62.00
2022-11-26T12:29:23.708Z,62.30
2022-11-26T12:31:50.174Z,62.40
2022-11-26T12:34:16.670Z,62.20
2022-11-26T12:36:43.167Z,61.90
2022-11-26T12:39:09.650Z,62.00
2022-11-26T12:41:36.130Z,62.10
2022-11-26T12:44:02.595Z,62.30
2022-11-26T12:46:29.057Z,62.50
2022-11-26T12:48:55.524Z,62.60
2022-11-26T12:51:22.005Z,62.60
2022-11-26T12:53:51.294Z,62.20
2022-11-26T12:56:17.814Z,62.40
2022-11-26T12:58:44.266Z,62.70
2022-11-26T13:01:10.808Z,62.90
2022-11-26T13:03:37.308Z,62.50
2022-11-26T13:06:03.790Z,62.10
2022-11-26T13:08:30.254Z,62.20
2022-11-26T13:10:56.746Z,62.40
2022-11-26T13:13:23.235Z,62.00
2022-11-26T13:15:49.752Z,62.00
2022-11-26T13:18:16.226Z,62.20
2022-11-26T13:20:42.729Z,62.40
2022-11-26T13:23:09.181Z,62.50
2022-11-26T13:25:35.669Z,62.80
2022-11-26T13:28:02.147Z,62.20
2022-11-26T13:30:28.649Z,61.70
2022-11-26T13:32:55.114Z,62.20
2022-11-26T13:35:21.611Z,62.40
2022-11-26T13:37:48.057Z,62.10
2022-11-26T13:40:14.530Z,62.00
2022-11-26T13:42:40.993Z,62.50
2022-11-26T13:45:07.461Z,62.70
2022-11-26T13:47:33.948Z,62.70
2022-11-26T13:50:00.410Z,62.30
2022-11-26T13:52:26.894Z,61.80
2022-11-26T13:54:53.363Z,61.90
2022-11-26T13:57:19.853Z,62.50
2022-11-26T13:59:46.309Z,63.00
2022-11-26T14:02:12.854Z,62.80
2022-11-26T14:04:39.497Z,62.80
2022-11-26T14:07:06.030Z,62.40
2022-11-26T14:09:32.503Z,62.00
2022-11-26T14:11:58.959Z,61.90
2022-11-26T14:14:25.406Z,61.90
2022-11-26T14:16:51.956Z,61.80
2022-11-26T14:19:18.446Z,61.70
2022-11-26T14:21:44.929Z,61.80
2022-11-26T14:24:11.393Z,62.20
2022-11-26T14:26:37.844Z,62.00
2022-11-26T14:29:06.200Z,62.20
2022-11-26T14:31:32.979Z,62.50
2022-11-26T14:33:59.501Z,62.30
2022-11-26T14:36:26.011Z,62.10
2022-11-26T14:38:52.472Z,61.90
2022-11-26T14:41:18.963Z,61.30
2022-11-26T14:43:45.433Z,61.40
2022-11-26T14:46:11.963Z,61.80
2022-11-26T14:48:38.488Z,62.00
2022-11-26T14:51:04.972Z,61.60
2022-11-26T14:53:31.422Z,61.40
2022-11-26T14:55:57.903Z,61.50
2022-11-26T14:58:24.360Z,61.60
2022-11-26T15:00:50.836Z,61.10
2022-11-26T15:03:17.321Z,61.20
2022-11-26T15:05:45.284Z,61.60
2022-11-26T15:08:11.875Z,61.60
2022-11-26T15:10:38.368Z,61.30
2022-11-26T15:13:04.830Z,61.00
2022-11-26T15:15:31.420Z,61.20
2022-11-26T15:17:57.906Z,61.00
2022-11-26T15:20:24.386Z,60.90
2022-11-26T15:22:50.845Z,61.00
2022-11-26T15:25:17.323Z,61.00
2022-11-26T15:27:43.771Z,60.90
2022-11-26T15:30:10.256Z,60.70
2022-11-26T15:32:36.736Z,60.70
2022-11-26T15:35:03.193Z,60.80
2022-11-26T15:37:34.065Z,60.50
2022-11-26T15:40:00.524Z,60.60
2022-11-26T15:42:26.998Z,60.50
2022-11-26T15:44:53.435Z,60.50
2022-11-26T15:47:19.947Z,60.70
2022-11-26T15:49:46.409Z,60.30
2022-11-26T15:52:12.882Z,60.10
2022-11-26T15:55:04.792Z,60.00
2022-11-26T15:57:25.776Z,60.20
2022-11-26T15:59:52.250Z,60.50
2022-11-26T16:02:18.762Z,60.20
2022-11-26T16:04:45.217Z,60.40
2022-11-26T16:07:11.755Z,60.40
2022-11-26T16:09:38.259Z,60.50
2022-11-26T16:12:04.720Z,60.50
2022-11-26T16:14:31.183Z,60.50
2022-11-26T16:16:57.713Z,60.20
2022-11-26T16:19:24.187Z,60.00
2022-11-26T16:21:50.665Z,60.00
2022-11-26T16:24:17.126Z,59.90
2022-11-26T16:26:51.367Z,59.80
2022-11-26T16:29:17.844Z,60.30
2022-11-26T16:31:44.327Z,60.30
2022-11-26T16:34:10.789Z,60.30
2022-11-26T16:36:37.323Z,60.30
2022-11-26T16:39:03.790Z,60.20
2022-11-26T16:41:30.278Z,60.10
2022-11-26T16:43:58.623Z,59.90
2022-11-26T16:46:25.317Z,59.60
2022-11-26T16:48:51.793Z,59.90
2022-11-26T16:51:18.245Z,60.00
2022-11-26T16:53:44.714Z,60.40
2022-11-26T16:56:12.562Z,60.00
2022-11-26T16:58:39.034Z,59.70
2022-11-26T17:01:05.503Z,59.90
2022-11-26T17:03:32.106Z,59.70
2022-11-26T17:05:58.629Z,59.40
2022-11-26T17:08:25.083Z,59.60
2022-11-26T17:10:51.533Z,59.60
2022-11-26T17:13:18.007Z,59.70
2022-11-26T17:15:50.245Z,59.90
2022-11-26T17:18:16.731Z,60.00
2022-11-26T17:20:43.262Z,59.90
2022-11-26T17:23:09.792Z,59.70
2022-11-26T17:25:36.321Z,59.60
2022-11-26T17:28:02.806Z,59.60
2022-11-26T17:30:29.291Z,59.80
2022-11-26T17:32:55.779Z,59.60
2022-11-26T17:35:22.247Z,59.50
2022-11-26T17:37:48.917Z,59.40
2022-11-26T17:40:15.379Z,59.50
2022-11-26T17:42:41.865Z,59.50
2022-11-26T17:45:08.331Z,59.50
2022-11-26T17:47:34.815Z,59.30
2022-11-26T17:50:01.328Z,59.30
2022-11-26T17:52:27.873Z,59.70
2022-11-26T17:54:54.342Z,59.90
2022-11-26T17:57:20.824Z,59.60
2022-11-26T17:59:47.490Z,59.50
2022-11-26T18:02:14.017Z,59.30
2022-11-26T18:04:40.551Z,59.30
2022-11-26T18:07:07.167Z,59.20
2022-11-26T18:09:33.647Z,59.20
2022-11-26T18:12:00.127Z,59.40
2022-11-26T18:14:26.597Z,59.30
2022-11-26T18:16:53.109Z,59.30
2022-11-26T18:19:19.639Z,59.00
2022-11-26T18:21:49.137Z,59.00
2022-11-26T18:24:15.620Z,59.00
2022-11-26T18:26:42.112Z,59.40
2022-11-26T18:29:08.573Z,59.10
2022-11-26T18:31:39.352Z,59.10
2022-11-26T18:34:06.258Z,59.10
2022-11-26T18:36:32.706Z,58.90
2022-11-26T18:38:59.305Z,59.20
2022-11-26T18:41:25.867Z,59.30
2022-11-26T18:43:52.360Z,59.00
2022-11-26T18:46:18.880Z,59.10
2022-11-26T18:48:45.396Z,59.20
2022-11-26T18:51:11.908Z,58.90
2022-11-26T18:53:38.388Z,58.90
2022-11-26T18:56:04.845Z,59.10
2022-11-26T18:58:31.346Z,59.00
2022-11-26T19:00:57.857Z,59.20
2022-11-26T19:03:24.353Z,59.10
2022-11-26T19:05:50.829Z,59.00
2022-11-26T19:08:17.520Z,59.10
2022-11-26T19:10:44.018Z,59.00
2022-11-26T19:13:10.485Z,58.70
2022-11-26T19:15:36.934Z,58.60
2022-11-26T19:18:03.402Z,58.70
2022-11-26T19:20:29.873Z,58.70
2022-11-26T19:22:56.340Z,58.70
2022-11-26T19:25:22.798Z,58.90
2022-11-26T19:27:49.322Z,58.70
2022-11-26T19:30:16.009Z,58.60
2022-11-26T19:32:42.637Z,58.70
2022-11-26T19:35:09.175Z,58.70
2022-11-26T19:37:35.655Z,58.80
2022-11-26T19:40:02.409Z,58.80
2022-11-26T19:42:28.898Z,58.80
2022-11-26T19:44:55.465Z,58.70
2022-11-26T19:47:21.944Z,58.70
2022-11-26T19:49:48.417Z,58.60
2022-11-26T19:52:15.000Z,58.80
2022-11-26T19:54:41.516Z,58.50
2022-11-26T19:57:08.010Z,58.50
2022-11-26T19:59:35.139Z,58.50
2022-11-26T20:02:01.684Z,58.80
2022-11-26T20:04:28.453Z,58.60
2022-11-26T20:06:54.967Z,58.50
2022-11-26T20:09:21.458Z,58.30
2022-11-26T20:11:47.948Z,58.30
2022-11-26T20:14:14.453Z,58.30
2022-11-26T20:16:41.173Z,58.60
2022-11-26T20:19:07.666Z,58.50
2022-11-26T20:21:34.142Z,58.60
2022-11-26T20:24:00.597Z,58.60
2022-11-26T20:26:27.102Z,58.50
2022-11-26T20:28:53.595Z,58.60
2022-11-26T20:31:23.552Z,58.60
2022-11-26T20:33:50.385Z,58.30
2022-11-26T20:36:16.851Z,58.30
2022-11-26T20:38:43.307Z,58.40
2022-11-26T20:41:09.765Z,58.20
2022-11-26T20:43:36.227Z,58.40
2022-11-26T20:46:02.984Z,58.40
2022-11-26T20:48:29.471Z,58.20
2022-11-26T20:50:55.992Z,58.20
2022-11-26T20:53:22.605Z,58.00
2022-11-26T20:55:49.079Z,58.20
2022-11-26T20:58:15.617Z,58.40
2022-11-26T21:00:42.231Z,58.10
2022-11-26T21:03:08.700Z,58.00
2022-11-26T21:05:35.199Z,58.00
2022-11-26T21:08:01.765Z,58.10
2022-11-26T21:10:28.308Z,58.00
2022-11-26T21:12:54.788Z,57.90
2022-11-26T21:15:21.281Z,57.90
2022-11-26T21:17:47.809Z,58.10
2022-11-26T21:20:14.399Z,58.30
2022-11-26T21:22:40.862Z,58.10
2022-11-26T21:25:07.350Z,57.90
2022-11-26T21:27:33.823Z,57.90
2022-11-26T21:30:00.300Z,58.00
2022-11-26T21:32:26.789Z,57.90
2022-11-26T21:34:53.307Z,58.00
2022-11-26T21:37:20.099Z,58.00
2022-11-26T21:39:46.592Z,57.90
2022-11-26T21:42:13.075Z,57.70
2022-11-26T21:44:39.559Z,57.60
2022-11-26T21:47:06.035Z,57.70
2022-11-26T21:49:32.501Z,57.60
2022-11-26T21:51:59.040Z,57.70
2022-11-26T21:54:25.837Z,57.70
2022-11-26T21:56:52.305Z,57.50
2022-11-26T21:59:18.771Z,57.60
2022-11-26T22:01:45.267Z,57.50
2022-11-26T22:04:11.761Z,57.50
2022-11-26T22:06:38.420Z,57.50
2022-11-26T22:09:05.106Z,57.60
2022-11-26T22:11:31.583Z,57.50
2022-11-26T22:13:58.085Z,57.50
2022-11-26T22:16:24.650Z,57.30
2022-11-26T22:18:51.210Z,57.30
2022-11-26T22:21:17.686Z,57.20
2022-11-26T22:23:44.150Z,57.20
2022-11-26T22:26:10.627Z,57.40
2022-11-26T22:28:37.099Z,57.10
2022-11-26T22:31:03.737Z,57.30
2022-11-26T22:33:30.209Z,57.40
2022-11-26T22:35:56.683Z,57.40
2022-11-26T22:38:23.168Z,57.50
2022-11-26T22:40:49.623Z,57.40
2022-11-26T22:43:16.080Z,57.30
2022-11-26T22:45:42.603Z,57.30
2022-11-26T22:48:09.098Z,57.50
2022-11-26T22:50:35.680Z,57.40
2022-11-26T22:53:02.165Z,57.40
2022-11-26T22:55:28.622Z,57.40
2022-11-26T22:57:55.090Z,57.00
2022-11-26T23:00:21.560Z,57.00
2022-11-26T23:02:48.157Z,57.10
2022-11-26T23:05:14.715Z,57.30
2022-11-26T23:07:41.386Z,57.30
2022-11-26T23:12:33.519Z,57.30
2022-11-26T23:14:59.987Z,57.30
2022-11-26T23:17:26.434Z,57.30
2022-11-26T23:19:52.983Z,57.20
2022-11-26T23:22:19.453Z,57.20
2022-11-26T23:24:45.919Z,57.30
2022-11-26T23:27:12.403Z,57.10
2022-11-26T23:29:39.061Z,57.50
2022-11-26T23:32:06.161Z,57.60
2022-11-26T23:34:32.618Z,57.30
2022-11-26T23:37:02.173Z,57.60
2022-11-26T23:39:28.661Z,57.20
2022-11-26T23:41:55.130Z,57.30
2022-11-26T23:44:21.660Z,57.30
2022-11-26T23:46:48.268Z,57.10
2022-11-26T23:49:14.787Z,56.90
2022-11-26T23:51:41.261Z,56.90
2022-11-26T23:54:07.792Z,56.90
2022-11-26T23:56:34.273Z,57.10
2022-11-26T23:59:00.899Z,57.30
